createdAt,value
2022-11-20T00:01:32.389Z,3.45
2022-11-20T00:04:01.839Z,3.53
2022-11-20T00:06:31.765Z,3.65
2022-11-20T00:09:03.172Z,3.88
2022-11-20T00:11:33.373Z,4.80
2022-11-20T00:14:04.013Z,5.88
2022-11-20T00:16:34.682Z,4.32
2022-11-20T00:19:03.777Z,4.47
2022-11-20T00:21:33.135Z,3.78
2022-11-20T00:24:02.155Z,3.83
2022-11-20T00:26:31.900Z,3.55
2022-11-20T00:29:03.577Z,4.65
2022-11-20T00:31:35.285Z,11.90
2022-11-20T00:34:04.356Z,47.45
2022-11-20T00:36:35.816Z,65.50
2022-11-20T00:39:05.308Z,53.13
2022-11-20T00:41:34.310Z,37.90
2022-11-20T00:44:03.377Z,21.67
2022-11-20T00:46:32.770Z,51.17
2022-11-20T00:49:01.782Z,134.18
2022-11-20T00:51:30.838Z,118.88
2022-11-20T00:54:01.711Z,59.50
2022-11-20T00:56:30.728Z,33.72
2022-11-20T00:59:02.027Z,21.30
2022-11-20T01:01:31.563Z,18.30
2022-11-20T01:04:02.305Z,14.23
2022-11-20T01:06:34.711Z,13.35
2022-11-20T01:09:09.712Z,23.67
2022-11-20T01:11:41.147Z,14.75
2022-11-20T01:14:15.138Z,10.68
2022-11-20T01:16:47.437Z,6.82
2022-11-20T01:19:22.829Z,6.00
2022-11-20T01:21:55.025Z,6.35
2022-11-20T01:24:24.381Z,6.63
2022-11-20T01:26:54.011Z,8.23
2022-11-20T01:29:25.670Z,8.15
2022-11-20T01:31:55.217Z,7.55
2022-11-20T01:34:27.896Z,8.10
2022-11-20T01:36:58.399Z,8.80
2022-11-20T01:39:31.704Z,9.63
2022-11-20T01:42:19.450Z,11.90
2022-11-20T01:44:53.215Z,13.10
2022-11-20T01:47:35.782Z,13.18
2022-11-20T01:50:21.069Z,10.70
2022-11-20T01:53:14.974Z,9.27
2022-11-20T01:55:51.998Z,9.57
2022-11-20T01:58:24.899Z,10.00
2022-11-20T02:00:53.959Z,12.85
2022-11-20T02:03:23.007Z,13.82
2022-11-20T02:06:08.109Z,24.17
2022-11-20T02:08:38.554Z,17.52
2022-11-20T02:11:07.516Z,10.93
2022-11-20T02:13:45.930Z,9.38
2022-11-20T02:16:25.856Z,8.27
2022-11-20T02:18:56.930Z,8.90
2022-11-20T02:21:25.783Z,8.98
2022-11-20T02:24:27.050Z,9.25
2022-11-20T02:27:01.670Z,9.95
2022-11-20T02:29:55.183Z,12.88
2022-11-20T02:32:38.266Z,13.15
2022-11-20T02:35:20.571Z,12.02
2022-11-20T02:37:52.876Z,11.13
2022-11-20T02:40:22.049Z,10.23
2022-11-20T02:42:54.855Z,12.15
2022-11-20T02:45:24.612Z,12.27
2022-11-20T02:47:53.934Z,12.45
2022-11-20T02:50:23.169Z,13.07
2022-11-20T02:52:52.104Z,15.10
2022-11-20T02:55:21.230Z,12.27
2022-11-20T02:57:50.152Z,10.18
2022-11-20T03:00:19.228Z,11.00
2022-11-20T03:02:48.485Z,9.45
2022-11-20T03:05:17.395Z,9.00
2022-11-20T03:07:47.224Z,8.68
2022-11-20T03:10:16.448Z,9.63
2022-11-20T03:12:45.315Z,10.70
2022-11-20T03:15:14.359Z,10.52
2022-11-20T03:17:43.301Z,11.07
2022-11-20T03:20:12.901Z,11.95
2022-11-20T03:22:41.903Z,15.50
2022-11-20T03:25:10.893Z,23.10
2022-11-20T03:27:39.790Z,21.35
2022-11-20T03:30:09.182Z,15.75
2022-11-20T03:32:37.998Z,14.07
2022-11-20T03:35:07.335Z,15.23
2022-11-20T03:37:36.161Z,16.88
2022-11-20T03:40:05.713Z,16.98
2022-11-20T03:42:47.195Z,16.23
2022-11-20T03:45:18.352Z,16.02
2022-11-20T03:47:47.402Z,13.43
2022-11-20T03:50:16.609Z,13.95
2022-11-20T03:52:45.516Z,13.85
2022-11-20T03:55:14.365Z,12.90
2022-11-20T03:57:43.373Z,10.02
2022-11-20T04:00:12.863Z,19.38
2022-11-20T04:02:41.635Z,16.77
2022-11-20T04:05:10.924Z,14.48
2022-11-20T04:07:40.011Z,13.80
2022-11-20T04:10:10.024Z,11.77
2022-11-20T04:12:38.836Z,11.02
2022-11-20T04:15:07.849Z,12.55
2022-11-20T04:17:37.351Z,11.75
2022-11-20T04:20:10.657Z,12.32
2022-11-20T04:22:40.096Z,10.90
2022-11-20T04:25:09.658Z,10.95
2022-11-20T04:27:41.854Z,11.43
2022-11-20T04:30:11.150Z,11.95
2022-11-20T04:32:39.871Z,9.25
2022-11-20T04:35:09.628Z,9.52
2022-11-20T04:37:40.314Z,12.05
2022-11-20T04:40:09.639Z,13.20
2022-11-20T04:42:38.541Z,13.55
2022-11-20T04:45:08.064Z,10.55
2022-11-20T04:47:37.029Z,10.80
2022-11-20T04:50:07.049Z,9.98
2022-11-20T04:52:36.031Z,10.32
2022-11-20T04:55:05.272Z,10.65
2022-11-20T04:57:34.260Z,11.35
2022-11-20T05:00:03.734Z,10.98
2022-11-20T05:02:33.909Z,10.20
2022-11-20T05:05:02.778Z,11.75
2022-11-20T05:07:31.755Z,11.02
2022-11-20T05:10:00.678Z,10.15
2022-11-20T05:12:30.495Z,8.70
2022-11-20T05:14:59.520Z,9.32
2022-11-20T05:17:28.546Z,9.02
2022-11-20T05:19:57.493Z,27.45
2022-11-20T05:22:26.340Z,31.52
2022-11-20T05:24:55.395Z,30.55
2022-11-20T05:27:24.307Z,15.65
2022-11-20T05:29:53.435Z,12.45
2022-11-20T05:32:22.342Z,10.95
2022-11-20T05:34:51.131Z,13.82
2022-11-20T05:37:20.031Z,15.93
2022-11-20T05:39:48.743Z,24.58
2022-11-20T05:42:32.472Z,25.40
2022-11-20T05:45:02.947Z,17.95
2022-11-20T05:47:35.954Z,13.73
2022-11-20T05:50:04.912Z,14.05
2022-11-20T05:52:33.643Z,13.77
2022-11-20T05:55:03.376Z,13.70
2022-11-20T05:57:33.876Z,14.95
2022-11-20T06:00:03.332Z,18.85
2022-11-20T06:02:36.248Z,30.13
2022-11-20T06:05:05.336Z,30.00
2022-11-20T06:07:34.149Z,20.98
2022-11-20T06:10:02.986Z,12.10
2022-11-20T06:12:34.735Z,13.60
2022-11-20T06:15:03.847Z,13.82
2022-11-20T06:17:32.573Z,12.02
2022-11-20T06:20:01.425Z,11.10
2022-11-20T06:22:31.000Z,11.18
2022-11-20T06:24:59.922Z,14.50
2022-11-20T06:27:29.378Z,12.43
2022-11-20T06:29:58.128Z,40.75
2022-11-20T06:32:26.846Z,31.27
2022-11-20T06:34:55.650Z,26.02
2022-11-20T06:37:24.571Z,20.92
2022-11-20T06:39:53.381Z,13.48
2022-11-20T06:42:22.171Z,10.68
2022-11-20T06:44:51.005Z,10.50
2022-11-20T06:47:19.730Z,10.90
2022-11-20T06:49:48.517Z,9.13
2022-11-20T06:52:17.280Z,10.88
2022-11-20T06:54:46.075Z,11.23
2022-11-20T06:57:14.796Z,19.48
2022-11-20T06:59:43.623Z,19.02
2022-11-20T07:02:13.840Z,24.38
2022-11-20T07:04:42.669Z,26.08
2022-11-20T07:07:11.421Z,37.10
2022-11-20T07:09:40.218Z,30.60
2022-11-20T07:12:09.091Z,35.65
2022-11-20T07:14:37.945Z,35.10
2022-11-20T07:17:06.629Z,36.65
2022-11-20T07:19:35.411Z,40.00
2022-11-20T07:22:04.140Z,28.75
2022-11-20T07:24:33.070Z,26.45
2022-11-20T07:27:01.773Z,22.23
2022-11-20T07:29:30.573Z,21.67
2022-11-20T07:31:59.397Z,20.30
2022-11-20T07:34:28.235Z,18.25
2022-11-20T07:36:57.181Z,15.23
2022-11-20T07:39:25.957Z,12.40
2022-11-20T07:41:54.633Z,11.60
2022-11-20T07:44:23.455Z,8.75
2022-11-20T07:46:52.255Z,9.52
2022-11-20T07:49:21.253Z,9.38
2022-11-20T07:51:53.013Z,11.50
2022-11-20T07:54:22.918Z,9.70
2022-11-20T07:56:51.691Z,10.88
2022-11-20T07:59:20.577Z,10.90
2022-11-20T08:01:49.431Z,12.70
2022-11-20T08:04:18.225Z,11.00
2022-11-20T08:06:47.119Z,9.88
2022-11-20T08:09:15.894Z,11.65
2022-11-20T08:12:03.068Z,10.50
2022-11-20T08:14:31.885Z,10.82
2022-11-20T08:17:01.343Z,11.98
2022-11-20T08:19:30.590Z,11.07
2022-11-20T08:21:59.270Z,12.88
2022-11-20T08:24:28.175Z,12.07
2022-11-20T08:27:00.670Z,13.52
2022-11-20T08:29:29.491Z,11.68
2022-11-20T08:31:58.263Z,12.50
2022-11-20T08:34:27.051Z,10.75
2022-11-20T08:36:55.888Z,8.45
2022-11-20T08:39:24.764Z,8.95
2022-11-20T08:41:53.585Z,10.82
2022-11-20T08:44:22.363Z,9.75
2022-11-20T08:46:51.170Z,7.38
2022-11-20T08:49:20.764Z,7.05
2022-11-20T08:51:53.415Z,5.80
2022-11-20T08:54:23.728Z,6.82
2022-11-20T08:56:52.549Z,6.22
2022-11-20T08:59:44.134Z,5.45
2022-11-20T09:02:10.219Z,6.57
2022-11-20T09:04:38.947Z,6.75
2022-11-20T09:07:07.789Z,14.15
2022-11-20T09:09:36.731Z,10.77
2022-11-20T09:12:05.753Z,9.40
2022-11-20T09:14:35.436Z,11.65
2022-11-20T09:17:04.681Z,7.68
2022-11-20T09:19:35.815Z,7.25
2022-11-20T09:22:09.946Z,7.28
2022-11-20T09:24:38.737Z,15.52
2022-11-20T09:27:07.621Z,12.38
2022-11-20T09:29:36.384Z,14.75
2022-11-20T09:32:05.364Z,15.25
2022-11-20T09:34:34.155Z,10.35
2022-11-20T09:37:06.362Z,9.45
2022-11-20T09:39:40.456Z,25.40
2022-11-20T09:42:31.650Z,18.40
2022-11-20T09:45:15.401Z,32.65
2022-11-20T09:47:45.316Z,43.45
2022-11-20T09:50:40.344Z,27.85
2022-11-20T09:53:26.808Z,15.98
2022-11-20T09:55:57.993Z,12.95
2022-11-20T09:58:49.532Z,9.13
2022-11-20T10:01:21.334Z,7.82
2022-11-20T10:03:59.054Z,8.00
2022-11-20T10:06:36.469Z,7.70
2022-11-20T10:09:14.473Z,7.63
2022-11-20T10:12:07.513Z,8.50
2022-11-20T10:14:54.822Z,8.45
2022-11-20T10:17:33.114Z,8.82
2022-11-20T10:20:20.112Z,7.53
2022-11-20T10:23:30.205Z,7.32
2022-11-20T10:26:04.393Z,6.90
2022-11-20T10:28:57.078Z,7.75
2022-11-20T10:31:44.521Z,8.00
2022-11-20T10:34:23.164Z,11.27
2022-11-20T10:36:58.270Z,7.80
2022-11-20T10:39:46.138Z,7.70
2022-11-20T10:42:22.887Z,7.53
2022-11-20T10:47:36.113Z,6.47
2022-11-20T10:50:10.899Z,5.68
2022-11-20T10:53:11.042Z,5.43
2022-11-20T10:55:52.542Z,5.10
2022-11-20T10:58:42.974Z,5.75
2022-11-20T11:01:29.884Z,5.70
2022-11-20T11:04:00.510Z,5.65
2022-11-20T11:06:42.584Z,4.85
2022-11-20T11:09:18.296Z,6.03
2022-11-20T11:11:47.334Z,5.30
2022-11-20T11:14:18.041Z,5.03
2022-11-20T11:16:55.424Z,4.90
2022-11-20T11:19:25.124Z,4.88
2022-11-20T11:21:58.935Z,4.95
2022-11-20T11:24:45.771Z,4.88
2022-11-20T11:27:19.390Z,4.70
2022-11-20T11:29:49.006Z,5.03
2022-11-20T11:32:22.409Z,4.78
2022-11-20T11:35:06.602Z,4.80
2022-11-20T11:37:38.627Z,5.28
2022-11-20T11:40:25.233Z,5.10
2022-11-20T11:43:04.218Z,4.80
2022-11-20T11:45:33.488Z,4.85
2022-11-20T11:48:05.589Z,4.80
2022-11-20T11:50:35.192Z,5.00
2022-11-20T11:53:21.118Z,5.30
2022-11-20T11:56:05.042Z,6.35
2022-11-20T11:58:55.701Z,5.53
2022-11-20T12:01:42.668Z,7.40
2022-11-20T12:04:48.815Z,6.47
2022-11-20T12:07:47.560Z,7.30
2022-11-20T12:10:24.373Z,6.20
2022-11-20T12:13:03.990Z,8.43
2022-11-20T12:15:35.714Z,7.50
2022-11-20T12:18:11.320Z,7.32
2022-11-20T12:21:04.385Z,6.88
2022-11-20T12:24:01.475Z,7.03
2022-11-20T12:26:54.853Z,6.82
2022-11-20T12:29:35.123Z,7.82
2022-11-20T12:32:24.332Z,7.00
2022-11-20T12:35:30.308Z,8.57
2022-11-20T12:37:59.012Z,6.93
2022-11-20T12:41:37.189Z,7.53
2022-11-20T12:45:02.889Z,7.05
2022-11-20T12:47:40.467Z,7.88
2022-11-20T12:50:53.690Z,7.47
2022-11-20T12:53:53.441Z,7.50
2022-11-20T12:56:48.374Z,7.55
2022-11-20T12:59:50.631Z,7.22
2022-11-20T13:02:32.694Z,9.57
2022-11-20T13:05:20.665Z,13.80
2022-11-20T13:07:52.544Z,10.00
2022-11-20T13:10:45.634Z,7.93
2022-11-20T13:13:28.073Z,8.10
2022-11-20T13:16:06.443Z,8.07
2022-11-20T13:18:41.428Z,8.63
2022-11-20T13:21:19.101Z,7.80
2022-11-20T13:23:48.732Z,7.10
2022-11-20T13:26:17.405Z,8.18
2022-11-20T13:28:48.727Z,7.53
2022-11-20T13:31:35.858Z,7.15
2022-11-20T13:34:08.230Z,7.10
2022-11-20T13:36:38.357Z,6.55
2022-11-20T13:39:08.040Z,7.35
2022-11-20T13:41:41.141Z,7.50
2022-11-20T13:44:16.991Z,8.27
2022-11-20T13:46:48.025Z,7.47
2022-11-20T13:49:45.339Z,8.13
2022-11-20T13:52:35.638Z,7.30
2022-11-20T13:55:19.510Z,8.05
2022-11-20T13:58:12.497Z,7.03
2022-11-20T14:00:55.332Z,6.70
2022-11-20T14:03:58.551Z,6.85
2022-11-20T14:06:29.252Z,6.47
2022-11-20T14:08:59.149Z,7.78
2022-11-20T14:11:33.210Z,9.63
2022-11-20T14:14:04.699Z,10.07
2022-11-20T14:16:36.563Z,11.48
2022-11-20T14:19:23.653Z,13.20
2022-11-20T14:22:18.544Z,12.77
2022-11-20T14:24:48.406Z,12.50
2022-11-20T14:27:22.226Z,11.23
2022-11-20T14:29:52.462Z,9.23
2022-11-20T14:32:24.235Z,9.95
2022-11-20T14:34:53.284Z,9.10
2022-11-20T14:37:26.080Z,8.55
2022-11-20T14:39:57.469Z,8.18
2022-11-20T14:42:28.931Z,8.38
2022-11-20T14:45:02.129Z,7.43
2022-11-20T14:47:33.118Z,8.27
2022-11-20T14:50:07.391Z,6.97
2022-11-20T14:55:07.521Z,7.70
2022-11-20T14:57:38.107Z,7.82
2022-11-20T15:00:13.069Z,7.80
2022-11-20T15:02:49.738Z,6.78
2022-11-20T15:05:20.760Z,6.82
2022-11-20T15:07:52.480Z,6.53
2022-11-20T15:10:28.072Z,6.03
2022-11-20T15:13:33.351Z,7.10
2022-11-20T15:16:04.070Z,5.15
2022-11-20T15:18:43.343Z,5.20
2022-11-20T15:21:21.061Z,6.45
2022-11-20T15:23:50.979Z,6.45
2022-11-20T15:26:28.594Z,6.63
2022-11-20T15:28:57.542Z,5.88
2022-11-20T15:31:26.621Z,5.90
2022-11-20T15:33:55.534Z,6.22
2022-11-20T15:36:24.262Z,6.05
2022-11-20T15:38:53.021Z,6.40
2022-11-20T15:41:21.767Z,7.15
2022-11-20T15:43:51.688Z,6.30
2022-11-20T15:46:28.592Z,9.88
2022-11-20T15:48:59.343Z,18.10
2022-11-20T15:51:28.397Z,17.23
2022-11-20T15:53:58.045Z,12.50
2022-11-20T15:56:27.697Z,11.60
2022-11-20T15:58:56.517Z,12.68
2022-11-20T16:01:25.508Z,11.77
2022-11-20T16:03:54.246Z,9.13
2022-11-20T16:06:23.089Z,11.32
2022-11-20T16:08:51.967Z,14.70
2022-11-20T16:11:20.969Z,25.95
2022-11-20T16:14:08.149Z,32.40
2022-11-20T16:19:07.223Z,27.67
2022-11-20T16:21:36.671Z,40.78
2022-11-20T16:24:07.999Z,46.70
2022-11-20T16:26:37.743Z,54.75
2022-11-20T16:29:08.302Z,58.65
2022-11-20T16:31:37.336Z,47.55
2022-11-20T16:34:12.431Z,30.77
2022-11-20T16:36:45.300Z,10.95
2022-11-20T16:39:19.048Z,13.55
2022-11-20T16:44:19.303Z,23.10
2022-11-20T16:46:48.090Z,13.10
2022-11-20T16:49:16.927Z,15.00
2022-11-20T16:51:46.219Z,16.15
2022-11-20T16:54:19.438Z,15.25
2022-11-20T16:56:55.187Z,8.88
2022-11-20T16:59:24.076Z,8.27
2022-11-20T17:01:52.925Z,7.25
2022-11-20T17:04:22.117Z,9.40
2022-11-20T17:06:51.629Z,8.73
2022-11-20T17:09:20.577Z,7.68
2022-11-20T17:11:50.249Z,7.50
2022-11-20T17:14:19.240Z,8.30
2022-11-20T17:16:48.203Z,8.45
2022-11-20T17:19:17.633Z,7.88
2022-11-20T17:21:46.525Z,7.43
2022-11-20T17:24:17.075Z,7.88
2022-11-20T17:26:46.423Z,7.35
2022-11-20T17:29:24.834Z,7.75
2022-11-20T17:31:55.646Z,7.25
2022-11-20T17:34:25.535Z,7.40
2022-11-20T17:36:55.751Z,7.63
2022-11-20T17:39:24.629Z,6.95
2022-11-20T17:42:11.826Z,15.60
2022-11-20T17:44:44.061Z,54.85
2022-11-20T17:47:13.088Z,34.50
2022-11-20T17:49:44.978Z,19.23
2022-11-20T17:52:13.967Z,17.35
2022-11-20T17:54:42.745Z,17.80
2022-11-20T17:57:29.872Z,9.30
2022-11-20T18:00:02.653Z,8.00
2022-11-20T18:02:33.984Z,7.15
2022-11-20T18:05:04.237Z,6.82
2022-11-20T18:07:35.846Z,6.95
2022-11-20T18:10:09.985Z,7.30
2022-11-20T18:12:38.780Z,6.78
2022-11-20T18:15:11.757Z,6.40
2022-11-20T18:17:40.661Z,6.35
2022-11-20T18:22:59.548Z,6.72
2022-11-20T18:25:29.037Z,7.65
2022-11-20T18:27:57.973Z,7.72
2022-11-20T18:30:26.814Z,6.65
2022-11-20T18:32:57.441Z,6.57
2022-11-20T18:35:28.068Z,7.00
2022-11-20T18:37:56.980Z,7.45
2022-11-20T18:40:25.769Z,6.55
2022-11-20T18:43:12.993Z,7.05
2022-11-20T18:45:41.815Z,7.32
2022-11-20T18:48:10.643Z,6.78
2022-11-20T18:50:39.572Z,7.18
2022-11-20T18:53:08.314Z,7.15
2022-11-20T18:55:37.336Z,6.68
2022-11-20T18:58:06.070Z,7.18
2022-11-20T19:00:34.881Z,6.70
2022-11-20T19:03:03.662Z,6.60
2022-11-20T19:05:32.501Z,6.50
2022-11-20T19:08:01.221Z,6.25
2022-11-20T19:10:30.260Z,6.70
2022-11-20T19:13:00.026Z,7.20
2022-11-20T19:15:30.247Z,7.40
2022-11-20T19:17:59.557Z,6.57
2022-11-20T19:20:28.323Z,6.63
2022-11-20T19:22:57.454Z,6.10
2022-11-20T19:25:26.166Z,6.35
2022-11-20T19:27:55.340Z,5.85
2022-11-20T19:30:24.123Z,5.68
2022-11-20T19:32:53.056Z,4.90
2022-11-20T19:35:22.406Z,5.68
2022-11-20T19:37:52.826Z,5.65
2022-11-20T19:40:22.089Z,5.07
2022-11-20T19:42:50.865Z,5.47
2022-11-20T19:45:19.606Z,5.10
2022-11-20T19:50:37.212Z,4.97
2022-11-20T19:53:08.128Z,5.40
2022-11-20T19:55:37.495Z,4.65
2022-11-20T19:58:07.058Z,4.78
2022-11-20T20:00:36.057Z,5.05
2022-11-20T20:03:04.789Z,4.55
2022-11-20T20:05:36.119Z,4.88
2022-11-20T20:08:05.075Z,4.72
2022-11-20T20:10:34.147Z,4.82
2022-11-20T20:13:03.086Z,4.50
2022-11-20T20:15:32.355Z,4.40
2022-11-20T20:18:01.581Z,4.78
2022-11-20T20:20:30.458Z,4.10
2022-11-20T20:22:59.404Z,3.65
2022-11-20T20:25:28.384Z,4.18
2022-11-20T20:27:58.116Z,3.80
2022-11-20T20:30:29.296Z,3.85
2022-11-20T20:32:58.444Z,3.95
2022-11-20T20:35:27.509Z,3.78
2022-11-20T20:37:59.058Z,3.88
2022-11-20T20:40:27.967Z,4.10
2022-11-20T20:42:57.048Z,4.40
2022-11-20T20:45:29.043Z,3.88
2022-11-20T20:47:58.530Z,3.28
2022-11-20T20:50:28.342Z,3.10
2022-11-20T20:53:00.539Z,3.03
2022-11-20T20:55:29.621Z,3.20
2022-11-20T20:57:58.529Z,3.35
2022-11-20T21:00:27.550Z,2.90
2022-11-20T21:02:56.510Z,3.00
2022-11-20T21:05:25.765Z,2.80
2022-11-20T21:08:12.839Z,2.40
2022-11-20T21:11:05.847Z,3.00
2022-11-20T21:13:52.715Z,3.38
2022-11-20T21:16:25.972Z,2.85
2022-11-20T21:18:54.943Z,3.42
2022-11-20T21:21:42.082Z,2.80
2022-11-20T21:24:10.997Z,3.33
2022-11-20T21:26:39.706Z,2.92
2022-11-20T21:29:08.853Z,2.90
2022-11-20T21:31:38.242Z,2.75
2022-11-20T21:34:09.013Z,2.70
2022-11-20T21:36:37.821Z,2.80
2022-11-20T21:39:07.545Z,2.80
2022-11-20T21:41:37.005Z,2.70
2022-11-20T21:44:30.177Z,2.70
2022-11-20T21:46:56.977Z,2.70
2022-11-20T21:49:26.200Z,3.05
2022-11-20T21:51:55.243Z,2.53
2022-11-20T21:54:24.203Z,3.00
2022-11-20T21:56:53.248Z,2.38
2022-11-20T21:59:22.907Z,2.60
2022-11-20T22:01:51.813Z,2.67
2022-11-20T22:04:22.384Z,2.70
2022-11-20T22:06:51.504Z,3.03
2022-11-20T22:09:20.536Z,2.78
2022-11-20T22:11:49.473Z,2.70
2022-11-20T22:14:24.829Z,2.95
2022-11-20T22:16:54.668Z,2.75
2022-11-20T22:19:24.444Z,3.38
2022-11-20T22:21:53.471Z,3.00
2022-11-20T22:24:24.174Z,3.00
2022-11-20T22:26:53.178Z,2.97
2022-11-20T22:29:22.734Z,3.25
2022-11-20T22:31:54.571Z,2.63
2022-11-20T22:34:23.723Z,2.80
2022-11-20T22:36:52.683Z,2.97
2022-11-20T22:39:23.628Z,3.03
2022-11-20T22:41:52.424Z,2.85
2022-11-20T22:44:21.237Z,2.70
2022-11-20T22:46:50.240Z,2.85
2022-11-20T22:49:19.205Z,3.08
2022-11-20T22:51:48.195Z,2.90
2022-11-20T22:54:17.214Z,2.90
2022-11-20T22:56:46.449Z,2.70
2022-11-20T22:59:16.351Z,2.90
2022-11-20T23:01:45.870Z,5.70
2022-11-20T23:04:20.430Z,5.55
2022-11-20T23:06:49.233Z,6.13
2022-11-20T23:09:19.868Z,2.90
2022-11-20T23:11:48.695Z,2.95
2022-11-20T23:14:28.047Z,5.40
2022-11-20T23:16:56.928Z,3.40
2022-11-20T23:19:25.971Z,4.20
2022-11-20T23:21:55.400Z,3.33
2022-11-20T23:24:24.766Z,3.83
2022-11-20T23:26:53.874Z,3.47
2022-11-20T23:29:23.027Z,3.47
2022-11-20T23:31:52.364Z,3.55
2022-11-20T23:34:23.013Z,3.15
2022-11-20T23:36:52.680Z,3.85
2022-11-20T23:39:21.535Z,3.40
2022-11-20T23:41:50.657Z,3.35
2022-11-20T23:44:24.434Z,2.65
2022-11-20T23:46:56.679Z,3.13
2022-11-20T23:49:33.842Z,2.75
2022-11-20T23:52:09.281Z,4.13
2022-11-20T23:54:38.305Z,11.02
2022-11-20T23:57:07.143Z,37.47
2022-11-20T23:59:39.227Z,50.58
